createdAt,value
2022-07-30T00:02:50.668Z,95743.00
2022-07-30T00:06:53.531Z,95744.00
2022-07-30T00:10:57.762Z,95739.00
2022-07-30T00:15:00.567Z,95738.00
2022-07-30T00:19:03.892Z,95722.00
2022-07-30T00:23:07.225Z,95720.00
2022-07-30T00:27:11.373Z,95726.00
2022-07-30T00:31:16.164Z,95725.00
2022-07-30T00:35:19.121Z,95714.00
2022-07-30T00:39:22.210Z,95719.00
2022-07-30T00:43:26.386Z,95727.00
2022-07-30T00:47:29.211Z,95728.00
2022-07-30T00:51:32.072Z,95721.00
2022-07-30T00:55:37.511Z,95707.00
2022-07-30T00:59:41.838Z,95710.00
2022-07-30T01:03:44.595Z,95715.00
2022-07-30T01:07:47.518Z,95709.00
2022-07-30T01:11:50.503Z,95702.00
2022-07-30T01:15:54.921Z,95703.00
2022-07-30T01:20:01.371Z,95695.00
2022-07-30T01:24:25.753Z,95698.00
2022-07-30T01:28:34.656Z,95685.00
2022-07-30T01:32:42.710Z,95691.00
2022-07-30T01:36:46.994Z,95686.00
2022-07-30T01:40:51.678Z,95680.00
2022-07-30T01:44:56.164Z,95687.00
2022-07-30T01:49:01.095Z,95691.00
2022-07-30T01:53:08.567Z,95683.00
2022-07-30T01:57:11.699Z,95697.00
2022-07-30T02:01:16.213Z,95690.00
2022-07-30T02:05:19.325Z,95684.00
2022-07-30T02:09:29.619Z,95689.00
2022-07-30T02:13:33.693Z,95689.00
2022-07-30T02:17:45.049Z,95691.00
2022-07-30T02:21:51.507Z,95684.00
2022-07-30T02:25:55.176Z,95681.00
2022-07-30T02:30:01.400Z,95679.00
2022-07-30T02:34:08.059Z,95680.00
2022-07-30T02:38:13.903Z,95694.00
2022-07-30T02:42:17.911Z,95696.00
2022-07-30T02:46:26.047Z,95691.00
2022-07-30T02:51:07.562Z,95684.00
2022-07-30T02:55:12.722Z,95687.00
2022-07-30T02:59:18.159Z,95680.00
2022-07-30T03:03:21.960Z,95671.00
2022-07-30T03:07:28.118Z,95678.00
2022-07-30T03:11:32.084Z,95669.00
2022-07-30T03:15:39.351Z,95674.00
2022-07-30T03:19:43.889Z,95668.00
2022-07-30T03:23:50.566Z,95672.00
2022-07-30T03:27:55.738Z,95667.00
2022-07-30T03:31:59.499Z,95665.00
2022-07-30T03:36:03.775Z,95670.00
2022-07-30T03:40:09.327Z,95667.00
2022-07-30T03:44:12.922Z,95674.00
2022-07-30T03:48:16.876Z,95675.00
2022-07-30T03:52:22.824Z,95678.00
2022-07-30T03:56:27.572Z,95688.00
2022-07-30T04:00:42.511Z,95693.00
2022-07-30T04:04:45.334Z,95704.00
2022-07-30T04:08:48.248Z,95705.00
2022-07-30T04:12:52.404Z,95725.00
2022-07-30T04:17:03.971Z,95726.00
2022-07-30T04:21:17.054Z,95736.00
2022-07-30T04:25:24.160Z,95731.00
2022-07-30T04:29:29.687Z,95749.00
2022-07-30T04:33:33.304Z,95750.00
2022-07-30T04:38:12.639Z,95748.00
2022-07-30T04:42:15.458Z,95746.00
2022-07-30T04:46:24.555Z,95748.00
2022-07-30T04:50:29.910Z,95752.00
2022-07-30T04:54:43.667Z,95749.00
2022-07-30T04:58:47.042Z,95751.00
2022-07-30T05:02:54.393Z,95749.00
2022-07-30T05:06:58.809Z,95746.00
2022-07-30T05:11:03.323Z,95754.00
2022-07-30T05:15:07.560Z,95756.00
2022-07-30T05:19:11.712Z,95765.00
2022-07-30T05:23:14.710Z,95763.00
2022-07-30T05:27:21.814Z,95773.00
2022-07-30T05:31:25.413Z,95769.00
2022-07-30T05:35:34.655Z,95775.00
2022-07-30T05:39:37.414Z,95788.00
2022-07-30T05:44:15.051Z,95786.00
2022-07-30T05:48:18.171Z,95789.00
2022-07-30T05:52:22.951Z,95789.00
2022-07-30T05:56:29.671Z,95788.00
2022-07-30T06:00:42.934Z,95801.00
2022-07-30T06:04:46.453Z,95796.00
2022-07-30T06:08:51.098Z,95807.00
2022-07-30T06:12:53.958Z,95799.00
2022-07-30T06:16:56.818Z,95823.00
2022-07-30T06:21:02.277Z,95814.00
2022-07-30T06:25:29.254Z,95821.00
2022-07-30T06:29:33.389Z,95812.00
2022-07-30T06:33:37.051Z,95817.00
2022-07-30T06:38:06.864Z,95824.00
2022-07-30T06:42:05.941Z,95821.00
2022-07-30T06:46:28.693Z,95824.00
2022-07-30T06:50:31.546Z,95824.00
2022-07-30T06:54:34.370Z,95819.00
2022-07-30T06:58:51.559Z,95830.00
2022-07-30T07:03:12.633Z,95827.00
2022-07-30T07:07:26.856Z,95838.00
2022-07-30T07:11:39.226Z,95834.00
2022-07-30T07:15:47.386Z,95843.00
2022-07-30T07:20:01.759Z,95837.00
2022-07-30T07:24:09.155Z,95843.00
2022-07-30T07:28:33.654Z,95849.00
2022-07-30T07:32:39.000Z,95845.00
2022-07-30T07:36:43.521Z,95846.00
2022-07-30T07:40:47.381Z,95843.00
2022-07-30T07:44:50.635Z,95853.00
2022-07-30T07:48:55.638Z,95851.00
2022-07-30T07:53:07.358Z,95853.00
2022-07-30T07:57:12.199Z,95839.00
2022-07-30T08:01:19.007Z,95839.00
2022-07-30T08:06:00.823Z,95848.00
2022-07-30T08:10:23.383Z,95845.00
2022-07-30T08:14:44.961Z,95842.00
2022-07-30T08:19:06.202Z,95861.00
2022-07-30T08:23:19.665Z,95842.00
2022-07-30T08:27:22.489Z,95838.00
2022-07-30T08:31:25.383Z,95838.00
2022-07-30T08:35:28.893Z,95842.00
2022-07-30T08:39:33.206Z,95840.00
2022-07-30T08:43:38.247Z,95844.00
2022-07-30T08:47:44.254Z,95836.00
2022-07-30T08:51:47.128Z,95845.00
2022-07-30T08:56:03.946Z,95846.00
2022-07-30T09:00:09.609Z,95845.00
2022-07-30T09:04:12.459Z,95843.00
2022-07-30T09:08:18.591Z,95839.00
2022-07-30T09:12:36.853Z,95838.00
2022-07-30T09:16:40.559Z,95842.00
2022-07-30T09:20:43.675Z,95843.00
2022-07-30T09:24:46.541Z,95860.00
2022-07-30T09:29:21.425Z,95844.00
2022-07-30T09:33:43.991Z,95837.00
2022-07-30T09:38:11.316Z,95837.00
2022-07-30T09:42:31.945Z,95843.00
2022-07-30T09:46:47.410Z,95841.00
2022-07-30T09:50:57.408Z,95841.00
2022-07-30T09:55:01.659Z,95848.00
2022-07-30T09:59:07.042Z,95852.00
2022-07-30T10:03:34.143Z,95852.00
2022-07-30T10:08:09.124Z,95846.00
2022-07-30T10:12:14.911Z,95848.00
2022-07-30T10:16:23.936Z,95854.00
2022-07-30T10:20:29.526Z,95855.00
2022-07-30T10:25:09.663Z,95850.00
2022-07-30T10:29:43.520Z,95853.00
2022-07-30T10:33:46.777Z,95867.00
2022-07-30T10:37:52.758Z,95862.00
2022-07-30T10:42:09.149Z,95868.00
2022-07-30T10:46:22.998Z,95873.00
2022-07-30T10:50:26.904Z,95870.00
2022-07-30T10:54:45.458Z,95867.00
2022-07-30T10:59:07.752Z,95884.00
2022-07-30T11:03:16.889Z,95873.00
2022-07-30T11:07:31.621Z,95888.00
2022-07-30T11:12:05.844Z,95882.00
2022-07-30T11:16:09.437Z,95881.00
2022-07-30T11:20:14.518Z,95888.00
2022-07-30T11:24:45.410Z,95889.00
2022-07-30T11:28:49.818Z,95896.00
2022-07-30T11:32:54.568Z,95898.00
2022-07-30T11:37:18.312Z,95907.00
2022-07-30T11:41:25.702Z,95907.00
2022-07-30T11:45:32.463Z,95878.00
2022-07-30T11:49:38.390Z,95878.00
2022-07-30T11:53:41.207Z,95887.00
2022-07-30T11:57:44.270Z,95883.00
2022-07-30T12:01:52.208Z,95882.00
2022-07-30T12:05:55.818Z,95876.00
2022-07-30T12:10:13.441Z,95884.00
2022-07-30T12:14:18.936Z,95867.00
2022-07-30T12:18:27.603Z,95875.00
2022-07-30T12:22:33.655Z,95865.00
2022-07-30T12:26:37.669Z,95868.00
2022-07-30T12:30:40.855Z,95866.00
2022-07-30T12:34:55.801Z,95865.00
2022-07-30T12:38:59.750Z,95859.00
2022-07-30T12:43:02.510Z,95857.00
2022-07-30T12:47:06.668Z,95890.00
2022-07-30T12:51:11.442Z,95864.00
2022-07-30T12:55:17.505Z,95859.00
2022-07-30T12:59:23.191Z,95887.00
2022-07-30T13:03:27.505Z,95906.00
2022-07-30T13:07:32.338Z,95873.00
2022-07-30T13:11:49.059Z,95906.00
2022-07-30T13:16:00.139Z,95897.00
2022-07-30T13:20:02.956Z,95873.00
2022-07-30T13:24:08.311Z,95913.00
2022-07-30T13:28:11.871Z,95882.00
2022-07-30T13:32:14.618Z,95879.00
2022-07-30T13:36:18.652Z,95877.00
2022-07-30T13:40:22.782Z,95891.00
2022-07-30T13:44:25.587Z,95882.00
2022-07-30T13:48:28.405Z,95884.00
2022-07-30T13:52:31.158Z,95879.00
2022-07-30T13:56:40.817Z,95877.00
2022-07-30T14:00:45.149Z,95889.00
2022-07-30T14:04:47.924Z,95880.00
2022-07-30T14:08:50.795Z,95880.00
2022-07-30T14:12:56.729Z,95890.00
2022-07-30T14:16:59.726Z,95888.00
2022-07-30T14:21:02.955Z,95881.00
2022-07-30T14:25:06.582Z,95890.00
2022-07-30T14:29:10.902Z,95882.00
2022-07-30T14:33:13.626Z,95886.00
2022-07-30T14:37:16.350Z,95875.00
2022-07-30T14:41:19.202Z,95872.00
2022-07-30T14:45:23.327Z,95873.00
2022-07-30T14:49:26.221Z,95868.00
2022-07-30T14:53:29.214Z,95867.00
2022-07-30T14:57:32.025Z,95874.00
2022-07-30T15:01:36.253Z,95861.00
2022-07-30T15:05:39.067Z,95857.00
2022-07-30T15:09:41.981Z,95864.00
2022-07-30T15:13:49.902Z,95858.00
2022-07-30T15:17:54.766Z,95861.00
2022-07-30T15:21:58.207Z,95854.00
2022-07-30T15:26:01.003Z,95865.00
2022-07-30T15:30:04.723Z,95864.00
2022-07-30T15:34:10.794Z,95872.00
2022-07-30T15:38:13.608Z,95858.00
2022-07-30T15:42:16.995Z,95862.00
2022-07-30T15:46:19.700Z,95865.00
2022-07-30T15:50:24.005Z,95872.00
2022-07-30T15:54:26.916Z,95866.00
2022-07-30T15:58:29.718Z,95864.00
2022-07-30T16:02:32.514Z,95857.00
2022-07-30T16:06:36.798Z,95853.00
2022-07-30T16:10:40.481Z,95854.00
2022-07-30T16:14:43.519Z,95856.00
2022-07-30T16:18:46.294Z,95864.00
2022-07-30T16:22:52.796Z,95863.00
2022-07-30T16:26:55.603Z,95866.00
2022-07-30T16:30:58.667Z,95865.00
2022-07-30T16:35:02.590Z,95864.00
2022-07-30T16:39:07.007Z,95859.00
2022-07-30T16:43:09.762Z,95869.00
2022-07-30T16:47:13.951Z,95863.00
2022-07-30T16:51:16.946Z,95868.00
2022-07-30T16:55:21.162Z,95869.00
2022-07-30T16:59:23.922Z,95862.00
2022-07-30T17:03:27.137Z,95866.00
2022-07-30T17:07:29.983Z,95873.00
2022-07-30T17:11:47.390Z,95875.00
2022-07-30T17:15:54.739Z,95878.00
2022-07-30T17:19:57.530Z,95879.00
2022-07-30T17:24:00.303Z,95881.00
2022-07-30T17:28:04.656Z,95880.00
2022-07-30T17:32:08.178Z,95885.00
2022-07-30T17:36:12.705Z,95891.00
2022-07-30T17:40:30.557Z,95894.00
2022-07-30T17:44:35.928Z,95888.00
2022-07-30T17:48:38.771Z,95895.00
2022-07-30T17:52:42.282Z,95892.00
2022-07-30T17:56:45.093Z,95889.00
2022-07-30T18:00:49.511Z,95902.00
2022-07-30T18:04:56.218Z,95904.00
2022-07-30T18:08:59.419Z,95898.00
2022-07-30T18:13:19.287Z,95904.00
2022-07-30T18:17:26.642Z,95896.00
2022-07-30T18:21:29.395Z,95906.00
2022-07-30T18:25:51.807Z,95922.00
2022-07-30T18:29:55.021Z,95942.00
2022-07-30T18:33:59.158Z,95947.00
2022-07-30T18:38:01.920Z,95955.00
2022-07-30T18:42:05.299Z,95946.00
2022-07-30T18:46:08.555Z,95941.00
2022-07-30T18:50:16.310Z,95947.00
2022-07-30T18:54:19.202Z,95953.00
2022-07-30T18:58:22.426Z,95956.00
2022-07-30T19:02:26.036Z,95963.00
2022-07-30T19:06:31.340Z,95980.00
2022-07-30T19:10:34.267Z,95983.00
2022-07-30T19:14:37.047Z,95980.00
2022-07-30T19:18:39.818Z,95985.00
2022-07-30T19:22:43.891Z,95977.00
2022-07-30T19:26:46.677Z,95978.00
2022-07-30T19:30:49.446Z,95982.00
2022-07-30T19:34:53.771Z,95984.00
2022-07-30T19:38:58.902Z,95994.00
2022-07-30T19:47:26.948Z,96003.00
2022-07-30T19:52:10.407Z,95996.00
2022-07-30T19:55:54.589Z,95988.00
2022-07-30T20:00:04.607Z,95991.00
2022-07-30T20:04:14.467Z,95988.00
2022-07-30T20:08:18.286Z,95983.00
2022-07-30T20:12:29.019Z,95991.00
2022-07-30T20:16:31.901Z,95995.00
2022-07-30T20:20:34.927Z,95994.00
2022-07-30T20:24:38.030Z,95992.00
2022-07-30T20:28:42.222Z,95987.00
2022-07-30T20:32:47.019Z,95992.00
2022-07-30T20:36:49.939Z,95986.00
2022-07-30T20:40:53.426Z,95995.00
2022-07-30T20:44:59.230Z,95996.00
2022-07-30T20:49:02.957Z,95997.00
2022-07-30T20:53:06.479Z,96000.00
2022-07-30T20:57:15.449Z,96001.00
2022-07-30T21:01:20.107Z,95996.00
2022-07-30T21:05:23.186Z,96003.00
2022-07-30T21:09:30.033Z,95998.00
2022-07-30T21:13:52.987Z,95998.00
2022-07-30T21:17:59.423Z,95998.00
2022-07-30T21:22:05.003Z,95999.00
2022-07-30T21:26:13.289Z,95995.00
2022-07-30T21:30:16.638Z,95992.00
2022-07-30T21:34:20.808Z,95998.00
2022-07-30T21:38:30.479Z,95996.00
2022-07-30T21:42:33.603Z,96001.00
2022-07-30T21:46:37.666Z,95994.00
2022-07-30T21:50:41.902Z,95996.00
2022-07-30T21:54:49.702Z,95992.00
2022-07-30T21:58:53.231Z,96001.00
2022-07-30T22:02:56.010Z,96004.00
2022-07-30T22:07:01.928Z,96002.00
2022-07-30T22:11:05.209Z,96012.00
2022-07-30T22:15:11.886Z,96022.00
2022-07-30T22:19:17.972Z,96021.00
2022-07-30T22:23:24.096Z,96029.00
2022-07-30T22:27:27.464Z,96027.00
2022-07-30T22:31:42.495Z,96024.00
2022-07-30T22:35:49.666Z,96019.00
2022-07-30T22:39:54.811Z,96012.00
2022-07-30T22:43:57.669Z,96010.00
2022-07-30T22:48:06.429Z,96011.00
2022-07-30T22:52:19.487Z,95999.00
2022-07-30T22:56:25.272Z,96012.00
2022-07-30T23:00:28.742Z,96011.00
2022-07-30T23:04:31.562Z,96002.00
2022-07-30T23:08:35.728Z,96004.00
2022-07-30T23:12:17.101Z,95993.00
2022-07-30T23:12:41.902Z,95996.00
2022-07-30T23:16:44.889Z,96003.00
2022-07-30T23:20:55.068Z,95999.00
2022-07-30T23:25:01.341Z,95992.00
2022-07-30T23:29:05.496Z,96000.00
2022-07-30T23:33:08.224Z,95999.00
2022-07-30T23:37:14.658Z,95994.00
2022-07-30T23:41:29.528Z,95990.00
2022-07-30T23:45:34.798Z,95975.00
2022-07-30T23:49:38.274Z,95985.00
2022-07-30T23:53:41.166Z,95986.00
2022-07-30T23:57:43.910Z,95982.00
